Terminal Aerodrome Forecast
Issued by NWS Shreveport, LA

Home | Current Version | Previous Version | Text Only | Print | Product List | Glossary On
Versions: 1 2 3 4 5 6 7 8 9 10 11 12 13 14 15 16 17 18 19 20 21 22
000
FTUS44 KSHV 061152
TAFTXK
TAF
KTXK 061152Z 0612/0712 18003KT 5SM BR SCT005 BKN015
      TEMPO 0612/0614 5SM BR BKN005 BKN015
     FM061400 19008KT P6SM BKN025
     FM061600 20012G18KT P6SM SCT035
     FM061900 21014G21KT P6SM BKN040 BKN250
     FM070000 16007KT P6SM BKN040
     FM070300 17005KT P6SM SCT250
     FM071100 18006KT 5SM BR BKN008=

USA.gov is the U.S. government's official web portal to all federal, state and local government web resources and services.